createdAt,value
2017-04-03T00:00:41.716Z,7.37
2017-04-03T00:01:47.812Z,11.53
2017-04-03T00:02:54.663Z,12.57
2017-04-03T00:04:00.749Z,7.55
2017-04-03T00:05:07.598Z,9.32
2017-04-03T00:06:13.702Z,23.67
2017-04-03T00:07:20.495Z,9.70
2017-04-03T00:08:26.490Z,7.10
2017-04-03T00:09:32.553Z,8.45
2017-04-03T00:10:38.764Z,11.93
2017-04-03T00:11:45.561Z,13.17
2017-04-03T00:12:51.898Z,8.45
2017-04-03T00:13:57.904Z,9.03
2017-04-03T00:15:03.948Z,7.02
2017-04-03T00:16:09.999Z,11.22
2017-04-03T00:17:16.121Z,11.05
2017-04-03T00:18:22.096Z,13.38
2017-04-03T00:19:28.924Z,9.48
2017-04-03T00:20:35.001Z,8.53
2017-04-03T00:21:40.972Z,5.68
2017-04-03T00:22:47.181Z,9.58
2017-04-03T00:23:53.147Z,11.17
2017-04-03T00:24:59.172Z,12.00
2017-04-03T00:26:05.067Z,8.80
2017-04-03T00:27:11.136Z,8.30
2017-04-03T00:28:17.856Z,7.18
2017-04-03T00:29:24.008Z,10.28
2017-04-03T00:30:29.965Z,9.85
2017-04-03T00:31:35.933Z,10.50
2017-04-03T00:32:41.952Z,11.95
2017-04-03T00:33:48.724Z,8.53
2017-04-03T00:34:54.712Z,5.93
2017-04-03T00:36:00.740Z,6.58
2017-04-03T00:37:07.041Z,7.38
2017-04-03T00:38:12.987Z,6.97
2017-04-03T00:39:19.246Z,8.88
2017-04-03T00:40:25.257Z,3.88
2017-04-03T00:41:31.426Z,6.87
2017-04-03T00:42:38.297Z,7.15
2017-04-03T00:43:44.159Z,4.68
2017-04-03T00:44:50.037Z,5.10
2017-04-03T00:45:56.189Z,4.48
2017-04-03T00:47:02.429Z,4.33
2017-04-03T00:48:08.380Z,4.03
2017-04-03T00:49:14.551Z,5.47
2017-04-03T00:50:20.676Z,5.27
2017-04-03T00:51:26.933Z,5.48
2017-04-03T00:52:33.833Z,4.43
2017-04-03T00:53:39.780Z,4.27
2017-04-03T00:54:45.870Z,4.30
2017-04-03T00:55:51.731Z,4.30
2017-04-03T00:56:57.817Z,8.07
2017-04-03T00:58:03.844Z,5.27
2017-04-03T00:59:09.826Z,7.83
2017-04-03T01:00:15.967Z,6.22
2017-04-03T01:01:21.864Z,5.48
2017-04-03T01:02:28.139Z,6.27
2017-04-03T01:03:34.492Z,4.67
2017-04-03T01:04:40.552Z,7.33
2017-04-03T01:05:46.776Z,4.35
2017-04-03T01:06:52.866Z,8.85
2017-04-03T01:07:58.852Z,4.73
2017-04-03T01:09:05.149Z,5.07
2017-04-03T01:10:11.418Z,3.75
2017-04-03T01:11:17.568Z,6.22
2017-04-03T01:12:23.717Z,3.75
2017-04-03T01:13:30.412Z,7.57
2017-04-03T01:14:37.696Z,5.58
2017-04-03T01:15:43.656Z,7.30
2017-04-03T01:16:49.656Z,7.15
2017-04-03T01:17:55.967Z,6.82
2017-04-03T01:19:02.026Z,4.12
2017-04-03T01:20:08.293Z,4.12
2017-04-03T01:21:15.324Z,4.75
2017-04-03T01:22:21.833Z,5.65
2017-04-03T01:23:27.840Z,6.40
2017-04-03T01:24:34.042Z,5.08
2017-04-03T01:25:40.720Z,6.73
2017-04-03T01:26:47.556Z,3.78
2017-04-03T01:27:53.592Z,7.58
2017-04-03T01:28:59.605Z,4.95
2017-04-03T01:30:05.976Z,3.23
2017-04-03T01:31:12.852Z,3.62
2017-04-03T01:32:18.771Z,4.28
2017-04-03T01:33:24.633Z,4.20
2017-04-03T01:34:30.548Z,3.90
2017-04-03T01:35:36.579Z,6.22
2017-04-03T01:36:42.649Z,5.33
2017-04-03T01:37:48.516Z,5.10
2017-04-03T01:38:54.644Z,7.15
2017-04-03T01:40:00.800Z,4.05
2017-04-03T01:41:07.692Z,5.73
2017-04-03T01:42:13.685Z,6.27
2017-04-03T01:43:21.141Z,4.07
2017-04-03T01:44:27.210Z,8.70
2017-04-03T01:45:33.384Z,5.05
2017-04-03T01:46:39.693Z,5.37
2017-04-03T01:47:46.359Z,9.00
2017-04-03T01:48:52.511Z,5.53
2017-04-03T01:49:58.612Z,5.35
2017-04-03T01:51:05.452Z,5.37
2017-04-03T01:52:11.585Z,6.17
2017-04-03T01:53:18.364Z,7.68
2017-04-03T01:54:25.338Z,5.87
2017-04-03T01:55:31.361Z,5.37
2017-04-03T01:56:37.448Z,5.80
2017-04-03T01:57:43.617Z,4.33
2017-04-03T01:58:49.641Z,8.27
2017-04-03T01:59:55.658Z,6.50
2017-04-03T02:01:01.735Z,7.33
2017-04-03T02:02:07.954Z,4.60
2017-04-03T02:03:14.256Z,6.50
2017-04-03T02:04:21.110Z,6.22
2017-04-03T02:05:27.116Z,4.65
2017-04-03T02:06:32.993Z,4.50
2017-04-03T02:07:39.175Z,6.15
2017-04-03T02:08:45.488Z,6.83
2017-04-03T02:09:52.312Z,8.85
2017-04-03T02:10:58.377Z,6.05
2017-04-03T02:12:04.327Z,5.40
2017-04-03T02:13:11.241Z,6.90
2017-04-03T02:14:17.366Z,10.23
2017-04-03T02:15:24.158Z,5.90
2017-04-03T02:16:30.312Z,8.35
2017-04-03T02:17:36.244Z,4.60
2017-04-03T02:18:42.221Z,14.52
2017-04-03T02:19:48.236Z,6.77
2017-04-03T02:20:54.388Z,5.27
2017-04-03T02:22:00.416Z,9.75
2017-04-03T02:23:06.363Z,3.93
2017-04-03T02:24:12.364Z,7.72
2017-04-03T02:25:19.271Z,3.82
2017-04-03T02:26:25.312Z,4.40
2017-04-03T02:27:31.376Z,4.73
2017-04-03T02:28:38.160Z,8.35
2017-04-03T02:29:44.300Z,9.98
2017-04-03T02:30:51.230Z,6.52
2017-04-03T02:31:57.204Z,7.98
2017-04-03T02:33:04.020Z,6.63
2017-04-03T02:34:10.422Z,5.60
2017-04-03T02:35:16.417Z,8.20
2017-04-03T02:36:22.800Z,6.47
2017-04-03T02:37:28.854Z,5.67
2017-04-03T02:38:35.656Z,6.65
2017-04-03T02:39:41.570Z,4.37
2017-04-03T02:40:47.652Z,11.10
2017-04-03T02:41:53.708Z,9.05
2017-04-03T02:42:59.760Z,6.07
2017-04-03T02:44:05.896Z,5.67
2017-04-03T02:45:11.945Z,5.58
2017-04-03T02:46:17.974Z,5.52
2017-04-03T02:47:23.916Z,3.55
2017-04-03T02:48:33.164Z,5.00
2017-04-03T02:49:39.281Z,5.05
2017-04-03T02:50:45.501Z,8.28
2017-04-03T02:51:51.710Z,6.62
2017-04-03T02:52:58.049Z,7.23
2017-04-03T02:54:04.700Z,7.17
2017-04-03T02:55:10.701Z,7.73
2017-04-03T02:56:16.776Z,6.53
2017-04-03T02:57:22.894Z,6.68
2017-04-03T02:58:28.986Z,6.15
2017-04-03T02:59:34.942Z,5.90
2017-04-03T03:00:41.082Z,4.72
2017-04-03T03:01:47.169Z,9.90
2017-04-03T03:02:53.660Z,8.75
2017-04-03T03:04:00.390Z,6.60
2017-04-03T03:05:07.361Z,8.85
2017-04-03T03:06:13.267Z,6.40
2017-04-03T03:07:19.405Z,5.00
2017-04-03T03:08:25.608Z,7.28
2017-04-03T03:09:31.832Z,6.10
2017-04-03T03:10:37.751Z,6.52
2017-04-03T03:11:43.863Z,5.40
2017-04-03T03:12:49.870Z,6.15
2017-04-03T03:13:55.929Z,6.40
2017-04-03T03:15:02.279Z,7.98
2017-04-03T03:16:08.217Z,6.70
2017-04-03T03:17:14.503Z,5.17
2017-04-03T03:18:20.560Z,6.00
2017-04-03T03:19:26.671Z,6.47
2017-04-03T03:20:32.629Z,9.42
2017-04-03T03:21:38.625Z,9.72
2017-04-03T03:22:44.805Z,4.78
2017-04-03T03:23:50.901Z,5.73
2017-04-03T03:24:57.607Z,8.42
2017-04-03T03:26:03.593Z,5.23
2017-04-03T03:27:09.457Z,8.25
2017-04-03T03:28:15.581Z,8.23
2017-04-03T03:29:21.540Z,7.12
2017-04-03T03:30:27.535Z,7.00
2017-04-03T03:31:34.434Z,7.27
2017-04-03T03:32:40.367Z,6.70
2017-04-03T03:33:47.377Z,6.27
2017-04-03T03:34:53.263Z,11.25
2017-04-03T03:35:59.308Z,14.30
2017-04-03T03:37:05.358Z,9.67
2017-04-03T03:38:11.428Z,4.75
2017-04-03T03:39:17.321Z,6.48
2017-04-03T03:40:23.280Z,8.53
2017-04-03T03:41:29.375Z,9.50
2017-04-03T03:42:36.279Z,6.77
2017-04-03T03:43:42.208Z,6.35
2017-04-03T03:44:48.154Z,7.38
2017-04-03T03:45:54.222Z,7.12
2017-04-03T03:47:00.234Z,10.77
2017-04-03T03:48:06.387Z,7.27
2017-04-03T03:49:12.241Z,8.00
2017-04-03T03:50:19.017Z,6.43
2017-04-03T03:51:25.117Z,5.63
2017-04-03T03:52:31.067Z,6.60
2017-04-03T03:53:37.115Z,4.88
2017-04-03T03:54:43.157Z,6.02
2017-04-03T03:55:53.496Z,5.65
2017-04-03T03:57:05.221Z,8.42
2017-04-03T03:58:16.745Z,8.10
2017-04-03T03:59:28.096Z,5.17
2017-04-03T04:00:34.812Z,10.12
2017-04-03T04:01:41.569Z,6.53
2017-04-03T04:02:47.698Z,6.53
2017-04-03T04:03:53.844Z,7.00
2017-04-03T04:04:59.876Z,4.95
2017-04-03T04:06:06.553Z,5.02
2017-04-03T04:07:12.623Z,10.27
2017-04-03T04:08:19.417Z,7.68
2017-04-03T04:09:25.338Z,7.62
2017-04-03T04:10:31.744Z,5.28
2017-04-03T04:11:38.432Z,4.75
2017-04-03T04:12:44.527Z,6.83
2017-04-03T04:13:50.590Z,6.20
2017-04-03T04:14:56.560Z,8.12
2017-04-03T04:16:02.654Z,7.02
2017-04-03T04:17:09.416Z,10.42
2017-04-03T04:18:15.436Z,7.27
2017-04-03T04:19:21.384Z,10.08
2017-04-03T04:20:27.409Z,6.82
2017-04-03T04:21:34.366Z,11.08
2017-04-03T04:22:40.284Z,8.80
2017-04-03T04:23:46.226Z,8.30
2017-04-03T04:24:52.406Z,6.85
2017-04-03T04:25:58.518Z,6.77
2017-04-03T04:27:04.604Z,11.52
2017-04-03T04:28:10.488Z,7.85
2017-04-03T04:29:16.508Z,10.55
2017-04-03T04:30:22.438Z,10.60
2017-04-03T04:31:28.344Z,7.48
2017-04-03T04:32:34.492Z,6.62
2017-04-03T04:33:40.472Z,7.43
2017-04-03T04:34:46.471Z,9.63
2017-04-03T04:35:52.511Z,14.87
2017-04-03T04:36:58.437Z,7.62
2017-04-03T04:38:04.460Z,9.35
2017-04-03T04:39:10.504Z,7.63
2017-04-03T04:40:16.466Z,11.47
2017-04-03T04:41:22.659Z,15.55
2017-04-03T04:42:28.680Z,11.35
2017-04-03T04:43:34.876Z,10.98
2017-04-03T04:44:40.903Z,10.92
2017-04-03T04:45:46.952Z,9.67
2017-04-03T04:46:52.955Z,11.57
2017-04-03T04:47:59.065Z,9.77
2017-04-03T04:49:05.234Z,10.45
2017-04-03T04:50:11.184Z,8.43
2017-04-03T04:51:17.036Z,11.45
2017-04-03T04:52:23.207Z,9.78
2017-04-03T04:53:29.419Z,11.23
2017-04-03T04:54:35.475Z,8.22
2017-04-03T04:55:41.610Z,12.17
2017-04-03T04:56:47.641Z,13.45
2017-04-03T04:57:53.524Z,15.07
2017-04-03T04:58:59.518Z,13.42
2017-04-03T05:00:05.636Z,11.25
2017-04-03T05:01:11.656Z,13.47
2017-04-03T05:02:17.929Z,13.28
2017-04-03T05:03:23.968Z,9.78
2017-04-03T05:04:30.132Z,13.53
2017-04-03T05:05:37.618Z,9.85
2017-04-03T05:06:43.540Z,7.87
2017-04-03T05:07:49.525Z,16.62
2017-04-03T05:08:55.709Z,9.83
2017-04-03T05:10:01.843Z,11.55
2017-04-03T05:11:08.885Z,11.73
2017-04-03T05:12:14.944Z,5.90
2017-04-03T05:13:20.892Z,14.17
2017-04-03T05:14:26.972Z,7.30
2017-04-03T05:15:32.940Z,11.27
2017-04-03T05:16:39.112Z,15.92
2017-04-03T05:17:45.898Z,7.18
2017-04-03T05:18:52.087Z,9.97
2017-04-03T05:20:00.229Z,13.38
2017-04-03T05:21:06.184Z,17.58
2017-04-03T05:22:12.230Z,6.40
2017-04-03T05:23:18.892Z,16.37
2017-04-03T05:24:25.002Z,16.40
2017-04-03T05:25:30.989Z,15.10
2017-04-03T05:26:36.913Z,9.55
2017-04-03T05:27:43.084Z,11.28
2017-04-03T05:28:49.515Z,9.37
2017-04-03T05:29:56.139Z,10.70
2017-04-03T05:31:02.821Z,13.38
2017-04-03T05:32:08.874Z,10.30
2017-04-03T05:33:14.965Z,17.62
2017-04-03T05:34:24.509Z,11.12
2017-04-03T05:35:30.472Z,12.92
2017-04-03T05:36:37.215Z,13.52
2017-04-03T05:37:43.121Z,12.60
2017-04-03T05:38:50.149Z,11.18
2017-04-03T05:39:56.220Z,5.47
2017-04-03T05:41:03.001Z,8.27
2017-04-03T05:42:08.985Z,15.43
2017-04-03T05:43:16.212Z,13.00
2017-04-03T05:44:23.405Z,11.52
2017-04-03T05:45:30.649Z,13.97
2017-04-03T05:46:37.576Z,13.18
2017-04-03T05:47:43.795Z,15.98
2017-04-03T05:48:49.953Z,10.43
2017-04-03T05:49:56.035Z,7.53
2017-04-03T05:51:02.299Z,8.77
2017-04-03T05:52:09.054Z,9.63
2017-04-03T05:53:16.722Z,8.60
2017-04-03T05:54:23.995Z,8.95
2017-04-03T05:55:31.132Z,8.77
2017-04-03T05:56:38.347Z,12.67
2017-04-03T05:57:44.612Z,12.83
2017-04-03T05:58:52.306Z,14.13
2017-04-03T05:59:58.317Z,6.52
2017-04-03T06:01:04.753Z,17.10
2017-04-03T06:02:10.746Z,14.85
2017-04-03T06:03:18.644Z,9.12
2017-04-03T06:04:24.628Z,6.90
2017-04-03T06:05:31.192Z,8.68
2017-04-03T06:06:38.509Z,6.48
2017-04-03T06:07:44.356Z,6.80
2017-04-03T06:08:50.417Z,9.78
2017-04-03T06:09:57.031Z,8.40
2017-04-03T06:11:03.804Z,7.18
2017-04-03T06:12:12.413Z,11.20
2017-04-03T06:13:19.170Z,10.72
2017-04-03T06:14:25.225Z,8.98
2017-04-03T06:15:31.321Z,10.60
2017-04-03T06:16:37.116Z,10.18
2017-04-03T06:17:45.484Z,11.05
2017-04-03T06:18:51.375Z,9.82
2017-04-03T06:19:57.624Z,11.87
2017-04-03T06:21:04.077Z,10.33
2017-04-03T06:22:09.945Z,9.75
2017-04-03T06:23:16.069Z,11.60
2017-04-03T06:24:22.959Z,7.18
2017-04-03T06:25:28.959Z,7.57
2017-04-03T06:26:34.811Z,9.05
2017-04-03T06:27:40.849Z,4.33
2017-04-03T06:28:47.057Z,9.52
2017-04-03T06:29:53.047Z,11.82
2017-04-03T06:30:58.924Z,13.65
2017-04-03T06:32:04.940Z,3.70
2017-04-03T06:33:10.864Z,3.82
2017-04-03T06:34:16.736Z,6.17
2017-04-03T06:35:22.705Z,9.03
2017-04-03T06:36:28.743Z,7.22
2017-04-03T06:37:34.818Z,10.87
2017-04-03T06:38:40.990Z,10.12
2017-04-03T06:39:46.932Z,7.23
2017-04-03T06:40:52.881Z,10.08
2017-04-03T06:41:58.817Z,5.77
2017-04-03T06:43:05.590Z,9.05
2017-04-03T06:44:11.697Z,9.22
2017-04-03T06:45:17.696Z,8.87
2017-04-03T06:46:23.636Z,5.00
2017-04-03T06:47:29.662Z,11.20
2017-04-03T06:48:35.598Z,12.27
2017-04-03T06:49:41.684Z,6.40
2017-04-03T06:50:47.765Z,2.97
2017-04-03T06:51:53.721Z,10.77
2017-04-03T06:52:59.821Z,7.22
2017-04-03T06:54:05.853Z,8.13
2017-04-03T06:55:12.834Z,5.80
2017-04-03T06:56:19.678Z,6.80
2017-04-03T06:57:25.763Z,5.53
2017-04-03T06:58:31.636Z,6.18
2017-04-03T06:59:37.684Z,10.42
2017-04-03T07:00:44.551Z,5.42
2017-04-03T07:01:51.141Z,3.05
2017-04-03T07:02:57.084Z,9.70
2017-04-03T07:04:03.088Z,9.48
2017-04-03T07:05:09.827Z,6.83
2017-04-03T07:06:15.920Z,14.80
2017-04-03T07:07:21.944Z,8.73
2017-04-03T07:08:27.924Z,8.48
2017-04-03T07:09:33.885Z,7.28
2017-04-03T07:10:39.912Z,4.35
2017-04-03T07:11:45.984Z,5.62
2017-04-03T07:12:52.287Z,4.17
2017-04-03T07:13:59.032Z,3.35
2017-04-03T07:15:05.800Z,6.90
2017-04-03T07:16:11.737Z,7.50
2017-04-03T07:17:17.687Z,4.88
2017-04-03T07:18:23.816Z,6.07
2017-04-03T07:19:29.762Z,8.40
2017-04-03T07:20:35.764Z,3.52
2017-04-03T07:21:41.881Z,7.48
2017-04-03T07:22:47.936Z,5.92
2017-04-03T07:23:54.132Z,3.13
2017-04-03T07:25:00.199Z,4.60
2017-04-03T07:26:06.492Z,5.73
2017-04-03T07:27:13.229Z,3.82
2017-04-03T07:28:19.097Z,5.80
2017-04-03T07:29:25.328Z,7.27
2017-04-03T07:30:31.988Z,4.60
2017-04-03T07:31:38.117Z,6.85
2017-04-03T07:32:44.108Z,8.12
2017-04-03T07:33:50.827Z,8.72
2017-04-03T07:34:56.897Z,5.48
2017-04-03T07:36:02.865Z,4.00
2017-04-03T07:37:08.957Z,3.55
2017-04-03T07:38:14.993Z,4.92
2017-04-03T07:39:21.077Z,5.37
2017-04-03T07:40:27.266Z,3.17
2017-04-03T07:41:33.180Z,3.97
2017-04-03T07:42:39.241Z,4.47
2017-04-03T07:43:45.366Z,4.48
2017-04-03T07:44:52.034Z,4.48
2017-04-03T07:45:58.326Z,5.05
2017-04-03T07:47:04.183Z,3.77
2017-04-03T07:48:10.244Z,5.98
2017-04-03T07:49:16.226Z,4.87
2017-04-03T07:50:22.081Z,3.05
2017-04-03T07:51:28.164Z,3.53
2017-04-03T07:52:35.024Z,11.28
2017-04-03T07:53:41.101Z,8.95
2017-04-03T07:54:47.197Z,10.85
2017-04-03T07:55:53.220Z,9.90
2017-04-03T07:56:59.292Z,4.33
2017-04-03T07:58:05.217Z,5.75
2017-04-03T07:59:11.115Z,4.28
2017-04-03T08:00:17.112Z,4.77
2017-04-03T08:01:23.152Z,4.45
2017-04-03T08:02:29.146Z,2.58
2017-04-03T08:03:35.145Z,2.97
2017-04-03T08:04:41.172Z,2.20
2017-04-03T08:05:47.063Z,5.18
2017-04-03T08:06:53.803Z,6.82
2017-04-03T08:07:59.937Z,6.17
2017-04-03T08:09:06.167Z,3.52
2017-04-03T08:10:12.002Z,8.80
2017-04-03T08:11:18.023Z,3.02
2017-04-03T08:12:24.106Z,3.93
2017-04-03T08:13:30.108Z,8.60
2017-04-03T08:14:36.128Z,5.23
2017-04-03T08:15:42.361Z,3.57
2017-04-03T08:16:49.159Z,3.07
2017-04-03T08:17:55.465Z,4.77
2017-04-03T08:19:03.325Z,2.37
2017-04-03T08:20:09.432Z,2.57
2017-04-03T08:21:15.875Z,3.08
2017-04-03T08:22:22.136Z,7.18
2017-04-03T08:23:28.056Z,6.33
2017-04-03T08:24:34.084Z,11.45
2017-04-03T08:25:41.095Z,2.37
2017-04-03T08:26:47.110Z,3.62
2017-04-03T08:27:53.304Z,4.55
2017-04-03T08:28:59.577Z,3.63
2017-04-03T08:30:05.681Z,5.25
2017-04-03T08:31:12.006Z,3.17
2017-04-03T08:32:19.522Z,3.13
2017-04-03T08:33:25.460Z,7.08
2017-04-03T08:34:31.406Z,1.65
2017-04-03T08:35:37.976Z,2.37
2017-04-03T08:36:45.258Z,2.62
2017-04-03T08:37:51.264Z,2.30
2017-04-03T08:38:58.882Z,4.32
2017-04-03T08:40:05.217Z,2.42
2017-04-03T08:41:11.549Z,4.33
2017-04-03T08:42:17.748Z,1.58
2017-04-03T08:43:24.302Z,2.58
2017-04-03T08:44:30.966Z,2.27
2017-04-03T08:45:36.935Z,1.58
2017-04-03T08:46:43.926Z,3.53
2017-04-03T08:47:50.108Z,3.23
2017-04-03T08:48:56.165Z,2.90
2017-04-03T08:50:03.254Z,2.75
2017-04-03T08:51:09.048Z,2.50
2017-04-03T08:52:15.277Z,2.15
2017-04-03T08:53:21.284Z,2.67
2017-04-03T08:54:27.333Z,4.75
2017-04-03T08:55:33.252Z,3.35
2017-04-03T08:56:40.057Z,2.68
2017-04-03T08:57:46.336Z,3.78
2017-04-03T08:58:52.447Z,2.58
2017-04-03T08:59:58.440Z,1.78
2017-04-03T09:01:04.514Z,7.97
2017-04-03T09:02:11.359Z,3.53
2017-04-03T09:03:18.431Z,2.32
2017-04-03T09:04:24.280Z,6.72
2017-04-03T09:05:30.367Z,2.12
2017-04-03T09:06:36.416Z,2.15
2017-04-03T09:07:42.304Z,2.37
2017-04-03T09:08:48.204Z,3.35
2017-04-03T09:09:54.364Z,1.65
2017-04-03T09:11:00.613Z,3.10
2017-04-03T09:12:07.781Z,2.82
2017-04-03T09:13:14.076Z,4.48
2017-04-03T09:14:19.992Z,1.20
2017-04-03T09:15:26.056Z,2.75
2017-04-03T09:16:32.731Z,2.35
2017-04-03T09:17:39.752Z,3.22
2017-04-03T09:18:45.648Z,3.90
2017-04-03T09:19:52.930Z,1.55
2017-04-03T09:20:59.374Z,1.93
2017-04-03T09:22:06.085Z,5.17
2017-04-03T09:23:12.253Z,2.35
2017-04-03T09:24:18.468Z,2.90
2017-04-03T09:25:25.124Z,2.27
2017-04-03T09:26:31.982Z,4.77
2017-04-03T09:27:38.079Z,6.73
2017-04-03T09:28:44.238Z,4.72
2017-04-03T09:29:50.108Z,3.07
2017-04-03T09:30:56.216Z,2.05
2017-04-03T09:32:02.832Z,6.98
2017-04-03T09:33:09.848Z,3.77
2017-04-03T09:34:16.944Z,4.53
2017-04-03T09:35:23.530Z,2.90
2017-04-03T09:36:30.685Z,8.85
2017-04-03T09:37:37.232Z,2.00
2017-04-03T09:38:44.109Z,6.05
2017-04-03T09:39:50.035Z,4.08
2017-04-03T09:40:55.952Z,3.97
2017-04-03T09:42:02.017Z,3.83
2017-04-03T09:43:07.908Z,2.95
2017-04-03T09:44:13.772Z,3.57
2017-04-03T09:45:20.177Z,3.42
2017-04-03T09:46:26.265Z,6.62
2017-04-03T09:47:33.146Z,4.43
2017-04-03T09:48:39.040Z,2.83
2017-04-03T09:49:45.149Z,4.02
2017-04-03T09:50:51.918Z,4.18
2017-04-03T09:51:58.007Z,4.35
2017-04-03T09:53:04.160Z,3.28
2017-04-03T09:54:10.125Z,3.23
2017-04-03T09:55:16.273Z,4.12
2017-04-03T09:56:23.132Z,1.82
2017-04-03T09:57:29.134Z,2.58
2017-04-03T09:58:35.987Z,1.88
2017-04-03T09:59:42.105Z,2.73
2017-04-03T10:00:48.142Z,2.28
2017-04-03T10:01:53.929Z,4.75
2017-04-03T10:03:00.768Z,4.48
2017-04-03T10:04:07.100Z,4.13
2017-04-03T10:05:13.151Z,3.50
2017-04-03T10:06:19.042Z,1.80
2017-04-03T10:07:25.046Z,3.20
2017-04-03T10:08:31.163Z,3.25
2017-04-03T10:09:37.255Z,2.82
2017-04-03T10:10:43.270Z,2.22
2017-04-03T10:11:49.306Z,4.72
2017-04-03T10:12:56.125Z,1.77
2017-04-03T10:14:02.333Z,3.38
2017-04-03T10:15:08.365Z,1.85
2017-04-03T10:16:14.398Z,3.38
2017-04-03T10:17:20.616Z,3.45
2017-04-03T10:18:26.721Z,1.88
2017-04-03T10:19:32.716Z,3.82
2017-04-03T10:20:38.668Z,3.25
2017-04-03T10:21:44.873Z,4.78
2017-04-03T10:22:50.841Z,4.70
2017-04-03T10:23:56.924Z,2.52
2017-04-03T10:25:03.165Z,1.98
2017-04-03T10:26:09.224Z,3.65
2017-04-03T10:27:15.396Z,2.90
2017-04-03T10:28:21.448Z,3.93
2017-04-03T10:29:27.318Z,3.73
2017-04-03T10:30:33.352Z,7.40
2017-04-03T10:31:39.416Z,4.73
2017-04-03T10:32:45.508Z,2.95
2017-04-03T10:33:51.551Z,4.62
2017-04-03T10:34:57.488Z,5.20
2017-04-03T10:36:03.529Z,3.00
2017-04-03T10:37:11.142Z,5.58
2017-04-03T10:38:17.197Z,2.87
2017-04-03T10:39:23.213Z,5.12
2017-04-03T10:40:29.344Z,2.97
2017-04-03T10:41:35.309Z,1.90
2017-04-03T10:42:41.552Z,4.12
2017-04-03T10:43:47.618Z,2.40
2017-04-03T10:44:53.726Z,2.47
2017-04-03T10:45:59.749Z,2.92
2017-04-03T10:47:06.746Z,4.72
2017-04-03T10:48:13.453Z,4.22
2017-04-03T10:49:21.407Z,3.72
2017-04-03T10:50:27.475Z,2.95
2017-04-03T10:51:33.369Z,4.90
2017-04-03T10:52:39.363Z,2.70
2017-04-03T10:53:45.865Z,2.43
2017-04-03T10:54:51.850Z,1.88
2017-04-03T10:55:58.191Z,1.87
2017-04-03T10:57:04.155Z,5.60
2017-04-03T10:58:10.174Z,3.82
2017-04-03T10:59:16.929Z,1.72
2017-04-03T11:00:22.946Z,5.93
2017-04-03T11:01:28.870Z,1.67
2017-04-03T11:02:35.921Z,4.05
2017-04-03T11:03:41.996Z,4.63
2017-04-03T11:04:47.937Z,2.55
2017-04-03T11:05:54.665Z,4.67
2017-04-03T11:07:00.611Z,4.37
2017-04-03T11:08:06.620Z,4.48
2017-04-03T11:09:13.500Z,2.87
2017-04-03T11:10:19.974Z,3.47
2017-04-03T11:11:26.369Z,5.33
2017-04-03T11:12:32.329Z,2.70
2017-04-03T11:13:37.504Z,3.38
2017-04-03T11:14:45.397Z,2.88
2017-04-03T11:15:51.394Z,2.95
2017-04-03T11:16:58.365Z,5.47
2017-04-03T11:18:05.205Z,3.15
2017-04-03T11:19:11.045Z,2.83
2017-04-03T11:20:17.854Z,5.20
2017-04-03T11:21:24.248Z,1.82
2017-04-03T11:22:31.033Z,8.08
2017-04-03T11:23:37.288Z,4.22
2017-04-03T11:24:43.889Z,3.67
2017-04-03T11:25:49.836Z,2.48
2017-04-03T11:26:56.015Z,3.50
2017-04-03T11:28:01.844Z,2.62
2017-04-03T11:29:07.968Z,3.32
2017-04-03T11:30:13.990Z,1.48
2017-04-03T11:31:20.012Z,4.23
2017-04-03T11:32:26.116Z,6.47
2017-04-03T11:33:32.192Z,6.38
2017-04-03T11:34:38.182Z,3.67
2017-04-03T11:35:44.233Z,4.00
2017-04-03T11:36:50.280Z,5.50
2017-04-03T11:37:56.685Z,4.50
2017-04-03T11:39:02.693Z,3.27
2017-04-03T11:40:08.660Z,1.55
2017-04-03T11:41:14.603Z,1.72
2017-04-03T11:42:20.665Z,2.20
2017-04-03T11:43:26.599Z,7.38
2017-04-03T11:44:36.753Z,2.18
2017-04-03T11:45:43.207Z,4.93
2017-04-03T11:46:54.439Z,3.65
2017-04-03T11:48:00.434Z,3.25
2017-04-03T11:49:12.145Z,2.85
2017-04-03T11:50:25.272Z,3.68
2017-04-03T11:51:37.572Z,5.23
2017-04-03T11:52:48.719Z,2.27
2017-04-03T11:53:57.460Z,3.00
2017-04-03T11:55:03.604Z,5.78
2017-04-03T11:56:09.758Z,2.57
2017-04-03T11:57:15.743Z,2.52
2017-04-03T11:58:22.593Z,1.70
2017-04-03T11:59:28.641Z,5.28
2017-04-03T12:00:34.733Z,5.23
2017-04-03T12:01:40.723Z,4.17
2017-04-03T12:02:47.546Z,3.43
2017-04-03T12:03:54.396Z,2.93
2017-04-03T12:05:00.540Z,2.47
2017-04-03T12:06:06.832Z,4.32
2017-04-03T12:07:12.914Z,1.65
2017-04-03T12:08:18.945Z,3.58
2017-04-03T12:09:25.100Z,4.75
2017-04-03T12:10:31.052Z,9.55
2017-04-03T12:11:37.352Z,2.22
2017-04-03T12:12:44.168Z,1.58
2017-04-03T12:13:50.964Z,2.42
2017-04-03T12:14:57.069Z,2.55
2017-04-03T12:16:03.108Z,4.08
2017-04-03T12:17:10.168Z,3.43
2017-04-03T12:18:16.260Z,2.77
2017-04-03T12:19:22.817Z,3.40
2017-04-03T12:20:28.870Z,5.67
2017-04-03T12:21:35.647Z,2.92
2017-04-03T12:22:41.872Z,2.92
2017-04-03T12:23:47.947Z,2.37
2017-04-03T12:24:54.140Z,8.05
2017-04-03T12:26:00.208Z,4.80
2017-04-03T12:27:06.064Z,2.97
2017-04-03T12:28:11.412Z,3.42
2017-04-03T12:29:16.936Z,3.32
2017-04-03T12:30:22.984Z,2.95
2017-04-03T12:31:28.900Z,6.28
2017-04-03T12:32:35.001Z,4.68
2017-04-03T12:33:41.849Z,4.38
2017-04-03T12:34:48.127Z,2.45
2017-04-03T12:35:55.708Z,3.28
2017-04-03T12:37:02.558Z,2.55
2017-04-03T12:38:08.645Z,3.25
2017-04-03T12:39:14.904Z,3.22
2017-04-03T12:40:21.003Z,3.63
2017-04-03T12:41:26.961Z,4.77
2017-04-03T12:42:34.155Z,3.85
2017-04-03T12:43:40.297Z,2.40
2017-04-03T12:44:46.563Z,4.43
2017-04-03T12:45:53.625Z,4.92
2017-04-03T12:47:00.261Z,3.62
2017-04-03T12:48:06.257Z,6.07
2017-04-03T12:49:13.208Z,2.40
2017-04-03T12:50:19.145Z,6.00
2017-04-03T12:51:25.873Z,3.55
2017-04-03T12:52:31.818Z,4.17
2017-04-03T12:53:37.977Z,2.78
2017-04-03T12:54:43.941Z,3.15
2017-04-03T12:55:50.409Z,4.90
2017-04-03T12:56:56.598Z,3.40
2017-04-03T12:58:03.436Z,5.15
2017-04-03T12:59:10.173Z,3.47
2017-04-03T13:00:16.217Z,10.17
2017-04-03T13:01:22.288Z,3.97
2017-04-03T13:02:29.141Z,4.27
2017-04-03T13:03:35.211Z,5.15
2017-04-03T13:04:41.918Z,2.73
2017-04-03T13:05:48.657Z,5.47
2017-04-03T13:06:56.278Z,4.65
2017-04-03T13:08:01.453Z,3.20
2017-04-03T13:09:07.481Z,2.85
2017-04-03T13:10:13.520Z,5.13
2017-04-03T13:11:19.585Z,3.92
2017-04-03T13:12:25.995Z,5.65
2017-04-03T13:14:44.213Z,3.15
2017-04-03T13:15:50.142Z,2.48
2017-04-03T13:16:56.051Z,3.00
2017-04-03T13:18:03.486Z,3.15
2017-04-03T13:19:09.836Z,5.00
2017-04-03T13:20:15.833Z,1.82
2017-04-03T13:21:21.853Z,6.03
2017-04-03T13:22:27.921Z,2.78
2017-04-03T13:23:33.930Z,4.43
2017-04-03T13:24:39.924Z,3.17
2017-04-03T13:25:46.131Z,6.30
2017-04-03T13:26:52.168Z,2.58
2017-04-03T13:27:59.365Z,3.15
2017-04-03T13:29:06.386Z,3.35
2017-04-03T13:30:12.532Z,2.87
2017-04-03T13:31:18.814Z,3.57
2017-04-03T13:32:25.369Z,5.55
2017-04-03T13:33:31.374Z,5.35
2017-04-03T13:34:37.746Z,4.92
2017-04-03T13:35:43.638Z,6.62
2017-04-03T13:36:49.576Z,4.22
2017-04-03T13:37:55.637Z,3.42
2017-04-03T13:39:01.850Z,3.28
2017-04-03T13:40:07.958Z,2.78
2017-04-03T13:41:13.990Z,7.55
2017-04-03T13:42:20.141Z,3.57
2017-04-03T13:43:26.289Z,5.62
2017-04-03T13:44:32.210Z,7.42
2017-04-03T13:45:38.323Z,7.92
2017-04-03T13:46:45.119Z,8.38
2017-04-03T13:47:51.184Z,2.05
2017-04-03T13:48:57.182Z,9.38
2017-04-03T13:50:03.346Z,4.48
2017-04-03T13:51:10.358Z,3.35
2017-04-03T13:52:16.388Z,5.65
2017-04-03T13:53:23.067Z,9.30
2017-04-03T13:54:29.962Z,3.22
2017-04-03T13:55:35.988Z,2.75
2017-04-03T13:56:42.660Z,4.07
2017-04-03T13:57:48.717Z,2.53
2017-04-03T13:58:54.685Z,2.47
2017-04-03T14:00:00.594Z,3.08
2017-04-03T14:01:06.614Z,4.28
2017-04-03T14:02:12.804Z,3.80
2017-04-03T14:03:19.062Z,5.57
2017-04-03T14:04:25.165Z,6.68
2017-04-03T14:05:31.220Z,4.10
2017-04-03T14:06:37.217Z,3.37
2017-04-03T14:07:43.544Z,3.35
2017-04-03T14:08:49.656Z,5.52
2017-04-03T14:09:55.574Z,8.98
2017-04-03T14:11:03.379Z,4.25
2017-04-03T14:12:10.215Z,4.75
2017-04-03T14:13:16.433Z,5.13
2017-04-03T14:14:22.416Z,8.88
2017-04-03T14:15:56.104Z,6.08
2017-04-03T14:17:04.397Z,3.68
2017-04-03T14:18:11.974Z,2.42
2017-04-03T14:19:18.853Z,3.97
2017-04-03T14:20:24.877Z,6.70
2017-04-03T14:21:30.918Z,3.25
2017-04-03T14:22:36.901Z,3.82
2017-04-03T14:23:43.097Z,4.27
2017-04-03T14:24:49.308Z,2.68
2017-04-03T14:25:56.073Z,4.45
2017-04-03T14:27:02.084Z,2.57
2017-04-03T14:28:08.120Z,3.42
2017-04-03T14:29:14.547Z,3.78
2017-04-03T14:30:23.202Z,4.28
2017-04-03T14:31:29.263Z,4.80
2017-04-03T14:32:35.365Z,3.18
2017-04-03T14:33:41.336Z,8.87
2017-04-03T14:34:48.083Z,3.83
2017-04-03T14:35:54.458Z,5.33
2017-04-03T14:37:00.408Z,2.75
2017-04-03T14:38:06.500Z,4.60
2017-04-03T14:39:12.549Z,2.87
2017-04-03T14:40:18.497Z,4.12
2017-04-03T14:41:24.936Z,3.82